createdAt,value
2017-11-01T00:00:20.036Z,1.53
2017-11-01T00:02:50.308Z,1.51
2017-11-01T00:05:20.639Z,1.47
2017-11-01T00:07:51.007Z,1.46
2017-11-01T00:10:21.419Z,1.39
2017-11-01T00:12:51.908Z,1.32
2017-11-01T00:15:22.278Z,1.27
2017-11-01T00:17:52.779Z,1.32
2017-11-01T00:20:23.145Z,1.29
2017-11-01T00:22:53.597Z,1.30
2017-11-01T00:25:24.048Z,1.27
2017-11-01T00:27:54.337Z,1.24
2017-11-01T00:30:24.752Z,1.20
2017-11-01T00:32:55.121Z,1.15
2017-11-01T00:35:25.498Z,1.12
2017-11-01T00:37:55.882Z,1.11
2017-11-01T00:40:26.351Z,1.14
2017-11-01T00:42:56.716Z,1.18
2017-11-01T00:45:27.936Z,1.16
2017-11-01T00:47:58.240Z,1.07
2017-11-01T00:50:28.664Z,0.97
2017-11-01T00:52:59.178Z,0.98
2017-11-01T00:55:29.728Z,0.98
2017-11-01T00:57:59.601Z,0.97
2017-11-01T01:00:29.364Z,0.93
2017-11-01T01:02:59.095Z,0.87
2017-11-01T01:05:28.884Z,0.86
2017-11-01T01:07:58.642Z,0.89
2017-11-01T01:10:28.389Z,0.93
2017-11-01T01:12:58.218Z,0.97
2017-11-01T01:15:27.520Z,1.04
2017-11-01T01:17:57.782Z,0.97
2017-11-01T01:20:28.146Z,0.99
2017-11-01T01:22:58.760Z,0.95
2017-11-01T01:25:30.357Z,0.91
2017-11-01T01:28:00.948Z,0.84
2017-11-01T01:30:31.187Z,1.02
2017-11-01T01:33:02.419Z,1.04
2017-11-01T01:35:32.933Z,0.92
2017-11-01T01:38:03.327Z,0.80
2017-11-01T01:40:33.716Z,0.79
2017-11-01T01:43:04.162Z,0.94
2017-11-01T01:45:34.337Z,0.99
2017-11-01T01:48:04.551Z,1.06
2017-11-01T01:50:34.938Z,1.24
2017-11-01T01:53:09.074Z,1.49
2017-11-01T01:55:39.389Z,1.67
2017-11-01T01:58:09.237Z,1.85
2017-11-01T02:00:39.580Z,1.96
2017-11-01T02:03:09.427Z,2.03
2017-11-01T02:05:40.537Z,2.10
2017-11-01T02:08:10.885Z,2.23
2017-11-01T02:10:41.296Z,2.36
2017-11-01T02:13:11.823Z,2.47
2017-11-01T02:15:42.175Z,2.55
2017-11-01T02:18:12.413Z,2.63
2017-11-01T02:20:42.588Z,2.75
2017-11-01T02:23:12.569Z,2.78
2017-11-01T02:25:43.131Z,2.90
2017-11-01T02:28:12.740Z,3.06
2017-11-01T02:30:42.158Z,3.12
2017-11-01T02:33:11.558Z,3.18
2017-11-01T02:35:44.889Z,3.30
2017-11-01T02:38:14.835Z,3.35
2017-11-01T02:40:44.950Z,3.26
2017-11-01T02:43:15.523Z,3.25
2017-11-01T02:45:46.120Z,3.28
2017-11-01T02:48:16.471Z,3.32
2017-11-01T02:50:46.550Z,3.50
2017-11-01T02:53:17.117Z,3.44
2017-11-01T02:55:47.116Z,3.45
2017-11-01T02:58:17.174Z,3.53
2017-11-01T03:00:49.130Z,3.65
2017-11-01T03:03:19.408Z,3.75
2017-11-01T03:05:49.697Z,3.75
2017-11-01T03:08:20.187Z,3.74
2017-11-01T03:10:50.092Z,3.66
2017-11-01T03:13:20.411Z,3.73
2017-11-01T03:15:50.313Z,3.69
2017-11-01T03:18:20.336Z,3.83
2017-11-01T03:20:50.029Z,3.91
2017-11-01T03:23:20.307Z,3.95
2017-11-01T03:25:50.698Z,3.91
2017-11-01T03:28:20.713Z,3.93
2017-11-01T03:30:50.718Z,4.07
2017-11-01T03:33:20.717Z,3.96
2017-11-01T03:35:50.752Z,3.98
2017-11-01T03:38:21.063Z,3.89
2017-11-01T03:40:51.128Z,3.88
2017-11-01T03:43:21.040Z,3.86
2017-11-01T03:45:51.005Z,3.79
2017-11-01T03:48:21.177Z,3.80
2017-11-01T03:50:51.590Z,3.80
2017-11-01T03:53:21.599Z,3.89
2017-11-01T03:55:52.092Z,3.84
2017-11-01T03:58:22.089Z,3.93
2017-11-01T04:00:51.712Z,4.05
2017-11-01T04:03:21.594Z,4.05
2017-11-01T04:05:51.695Z,3.98
2017-11-01T04:08:21.982Z,3.97
2017-11-01T04:10:51.686Z,3.97
2017-11-01T04:13:21.981Z,3.99
2017-11-01T04:15:52.600Z,3.98
2017-11-01T04:18:26.075Z,4.10
2017-11-01T04:20:56.453Z,4.11
2017-11-01T04:23:26.879Z,4.16
2017-11-01T04:25:57.302Z,4.19
2017-11-01T04:28:27.352Z,4.26
2017-11-01T04:30:57.764Z,4.23
2017-11-01T04:33:28.119Z,4.26
2017-11-01T04:35:58.547Z,4.22
2017-11-01T04:38:28.603Z,4.30
2017-11-01T04:40:58.689Z,4.31
2017-11-01T04:43:28.739Z,4.27
2017-11-01T04:45:59.108Z,4.25
2017-11-01T04:48:29.079Z,4.37
2017-11-01T04:50:59.297Z,4.52
2017-11-01T04:53:29.575Z,4.54
2017-11-01T04:55:59.750Z,4.55
2017-11-01T04:58:30.191Z,4.67
2017-11-01T05:01:02.988Z,4.59
2017-11-01T05:03:33.118Z,4.51
2017-11-01T05:06:03.477Z,4.47
2017-11-01T05:08:38.754Z,4.45
2017-11-01T05:11:09.916Z,4.40
2017-11-01T05:13:45.980Z,4.42
2017-11-01T05:16:15.895Z,4.52
2017-11-01T05:18:45.709Z,4.57
2017-11-01T05:21:16.084Z,4.48
2017-11-01T05:23:47.819Z,4.44
2017-11-01T05:26:17.796Z,4.41
2017-11-01T05:28:47.313Z,4.41
2017-11-01T05:31:19.825Z,4.45
2017-11-01T05:33:49.244Z,4.46
2017-11-01T05:36:18.631Z,4.58
2017-11-01T05:38:48.557Z,4.61
2017-11-01T05:41:19.198Z,4.65
2017-11-01T05:43:49.238Z,4.66
2017-11-01T05:46:19.307Z,4.70
2017-11-01T05:48:49.232Z,4.78
2017-11-01T05:51:20.736Z,4.81
2017-11-01T05:53:51.053Z,4.86
2017-11-01T05:56:21.800Z,4.92
2017-11-01T05:58:52.876Z,4.92
2017-11-01T06:01:23.312Z,5.14
2017-11-01T06:03:53.094Z,5.23
2017-11-01T06:06:23.872Z,5.24
2017-11-01T06:08:53.959Z,5.37
2017-11-01T06:11:24.123Z,5.38
2017-11-01T06:13:54.277Z,5.40
2017-11-01T06:16:24.750Z,5.20
2017-11-01T06:18:54.232Z,5.30
2017-11-01T06:21:23.617Z,5.35
2017-11-01T06:23:53.004Z,5.33
2017-11-01T06:26:23.266Z,5.45
2017-11-01T06:28:52.910Z,5.41
2017-11-01T06:31:22.320Z,5.40
2017-11-01T06:33:51.793Z,5.49
2017-11-01T06:36:21.252Z,5.50
2017-11-01T06:38:50.673Z,5.49
2017-11-01T06:41:20.510Z,5.49
2017-11-01T06:43:51.129Z,5.48
2017-11-01T06:46:22.963Z,5.53
2017-11-01T06:48:54.014Z,5.63
2017-11-01T06:51:26.053Z,5.67
2017-11-01T06:53:57.023Z,5.92
2017-11-01T06:56:27.903Z,5.93
2017-11-01T06:58:59.476Z,6.00
2017-11-01T07:01:29.553Z,5.98
2017-11-01T07:04:01.402Z,5.94
2017-11-01T07:06:31.713Z,6.04
2017-11-01T07:09:01.476Z,6.04
2017-11-01T07:11:31.044Z,6.09
2017-11-01T07:14:00.444Z,6.13
2017-11-01T07:16:30.230Z,6.05
2017-11-01T07:19:01.687Z,6.21
2017-11-01T07:21:31.075Z,6.39
2017-11-01T07:24:00.816Z,6.42
2017-11-01T07:26:30.598Z,6.45
2017-11-01T07:29:00.373Z,6.59
2017-11-01T07:31:30.221Z,6.67
2017-11-01T07:34:00.012Z,7.02
2017-11-01T07:36:29.852Z,7.11
2017-11-01T07:39:00.623Z,7.07
2017-11-01T07:41:30.359Z,7.28
2017-11-01T07:44:00.140Z,7.44
2017-11-01T07:46:30.065Z,7.41
2017-11-01T07:48:59.982Z,7.68
2017-11-01T07:51:29.808Z,7.72
2017-11-01T07:53:59.540Z,7.89
2017-11-01T07:56:29.301Z,8.04
2017-11-01T07:58:59.920Z,8.19
2017-11-01T08:01:29.685Z,8.34
2017-11-01T08:03:59.500Z,8.59
2017-11-01T08:06:29.275Z,8.57
2017-11-01T08:08:59.034Z,8.70
2017-11-01T08:11:28.871Z,8.80
2017-11-01T08:13:58.654Z,8.57
2017-11-01T08:16:28.389Z,8.37
2017-11-01T08:18:58.578Z,8.38
2017-11-01T08:21:28.331Z,8.55
2017-11-01T08:23:58.112Z,8.85
2017-11-01T08:26:27.892Z,9.35
2017-11-01T08:28:57.629Z,9.70
2017-11-01T08:31:27.375Z,9.58
2017-11-01T08:33:57.174Z,9.44
2017-11-01T08:36:26.976Z,9.79
2017-11-01T08:38:56.794Z,10.01
2017-11-01T08:41:26.533Z,9.85
2017-11-01T08:43:56.277Z,9.77
2017-11-01T08:46:26.035Z,9.73
2017-11-01T08:48:55.449Z,9.67
2017-11-01T08:51:24.852Z,9.81
2017-11-01T08:53:54.669Z,9.86
2017-11-01T08:56:24.505Z,9.87
2017-11-01T08:58:54.262Z,9.49
2017-11-01T09:01:24.105Z,9.37
2017-11-01T09:03:53.736Z,9.27
2017-11-01T09:06:23.500Z,9.33
2017-11-01T09:08:53.305Z,9.49
2017-11-01T09:11:23.070Z,9.86
2017-11-01T09:13:52.994Z,9.94
2017-11-01T09:16:22.941Z,10.22
2017-11-01T09:18:52.815Z,10.42
2017-11-01T09:21:23.146Z,10.01
2017-11-01T09:23:52.998Z,9.83
2017-11-01T09:26:22.774Z,9.44
2017-11-01T09:28:52.529Z,9.29
2017-11-01T09:31:22.333Z,9.21
2017-11-01T09:33:52.201Z,9.05
2017-11-01T09:36:22.068Z,8.85
2017-11-01T09:38:51.852Z,8.79
2017-11-01T09:41:22.580Z,8.65
2017-11-01T09:43:52.352Z,8.52
2017-11-01T09:46:22.211Z,8.43
2017-11-01T09:48:51.961Z,8.35
2017-11-01T09:51:25.614Z,8.31
2017-11-01T09:53:55.420Z,8.39
2017-11-01T09:56:25.446Z,8.28
2017-11-01T09:58:56.945Z,8.19
2017-11-01T10:01:27.256Z,8.09
2017-11-01T10:03:57.442Z,8.08
2017-11-01T10:06:27.328Z,8.17
2017-11-01T10:08:57.185Z,8.22
2017-11-01T10:11:27.037Z,8.36
2017-11-01T10:13:56.841Z,8.38
2017-11-01T10:16:26.794Z,8.46
2017-11-01T10:19:01.079Z,8.48
2017-11-01T10:21:30.951Z,8.53
2017-11-01T10:24:00.802Z,8.55
2017-11-01T10:26:30.860Z,8.55
2017-11-01T10:29:00.677Z,8.71
2017-11-01T10:31:30.805Z,8.80
2017-11-01T10:34:04.859Z,8.98
2017-11-01T10:36:35.497Z,9.01
2017-11-01T10:39:06.562Z,9.18
2017-11-01T10:41:36.877Z,9.33
2017-11-01T10:44:06.640Z,9.50
2017-11-01T10:46:41.135Z,9.73
2017-11-01T10:49:11.439Z,9.65
2017-11-01T10:51:41.375Z,10.05
2017-11-01T10:54:11.252Z,10.29
2017-11-01T10:56:41.108Z,10.39
2017-11-01T10:59:10.958Z,10.38
2017-11-01T11:01:41.094Z,10.47
2017-11-01T11:04:10.948Z,10.34
2017-11-01T11:06:40.810Z,10.94
2017-11-01T11:09:10.697Z,10.94
2017-11-01T11:11:40.740Z,11.01
2017-11-01T11:14:10.575Z,10.83
2017-11-01T11:16:40.387Z,10.92
2017-11-01T11:19:10.153Z,10.66
2017-11-01T11:21:39.887Z,10.44
2017-11-01T11:24:11.640Z,10.47
2017-11-01T11:26:41.740Z,10.23
2017-11-01T11:29:11.565Z,10.21
2017-11-01T11:31:41.725Z,10.41
2017-11-01T11:34:11.542Z,10.24
2017-11-01T11:36:41.684Z,10.23
2017-11-01T11:39:11.577Z,10.48
2017-11-01T11:41:41.477Z,10.01
2017-11-01T11:44:11.403Z,9.90
2017-11-01T11:46:41.685Z,9.75
2017-11-01T11:49:12.396Z,9.58
2017-11-01T11:51:44.782Z,9.72
2017-11-01T11:54:14.709Z,10.04
2017-11-01T11:56:44.296Z,10.12
2017-11-01T11:59:14.169Z,9.98
2017-11-01T12:01:43.924Z,10.06
2017-11-01T12:04:13.669Z,10.08
2017-11-01T12:06:43.406Z,10.07
2017-11-01T12:09:13.159Z,10.17
2017-11-01T12:11:42.897Z,10.13
2017-11-01T12:14:12.674Z,10.07
2017-11-01T12:16:42.102Z,10.18
2017-11-01T12:19:11.858Z,10.23
2017-11-01T12:21:41.625Z,10.19
2017-11-01T12:24:11.399Z,10.30
2017-11-01T12:26:41.172Z,10.25
2017-11-01T12:29:10.985Z,10.30
2017-11-01T12:31:40.743Z,10.22
2017-11-01T12:34:10.481Z,10.11
2017-11-01T12:36:40.326Z,9.98
2017-11-01T12:39:09.898Z,9.90
2017-11-01T12:41:43.012Z,9.85
2017-11-01T12:44:12.869Z,9.88
2017-11-01T12:46:42.684Z,9.92
2017-11-01T12:49:12.328Z,9.90
2017-11-01T12:51:42.087Z,10.01
2017-11-01T12:54:11.827Z,9.77
2017-11-01T12:56:41.665Z,9.72
2017-11-01T12:59:11.491Z,9.63
2017-11-01T13:01:41.374Z,9.73
2017-11-01T13:04:11.209Z,9.70
2017-11-01T13:06:41.178Z,9.55
2017-11-01T13:09:11.241Z,9.64
2017-11-01T13:11:41.705Z,9.65
2017-11-01T13:14:11.466Z,9.68
2017-11-01T13:16:41.284Z,9.71
2017-11-01T13:19:12.142Z,9.67
2017-11-01T13:21:41.878Z,9.62
2017-11-01T13:24:11.539Z,9.71
2017-11-01T13:26:41.294Z,9.67
2017-11-01T13:29:11.332Z,9.52
2017-11-01T13:31:41.272Z,9.44
2017-11-01T13:34:11.266Z,9.33
2017-11-01T13:36:41.153Z,9.32
2017-11-01T13:39:10.979Z,9.38
2017-11-01T13:41:40.767Z,9.40
2017-11-01T13:44:10.754Z,9.43
2017-11-01T13:46:41.169Z,9.38
2017-11-01T13:49:11.294Z,9.41
2017-11-01T13:51:45.460Z,9.41
2017-11-01T13:54:15.219Z,9.26
2017-11-01T13:56:46.939Z,9.02
2017-11-01T13:59:17.715Z,8.73
2017-11-01T14:01:47.787Z,8.63
2017-11-01T14:04:17.867Z,8.59
2017-11-01T14:06:47.794Z,8.51
2017-11-01T14:09:17.790Z,8.44
2017-11-01T14:11:48.050Z,8.31
2017-11-01T14:14:17.869Z,8.36
2017-11-01T14:16:47.824Z,8.33
2017-11-01T14:19:17.675Z,8.35
2017-11-01T14:21:47.640Z,8.44
2017-11-01T14:24:17.485Z,8.52
2017-11-01T14:26:47.451Z,8.56
2017-11-01T14:29:17.604Z,8.64
2017-11-01T14:31:47.477Z,8.64
2017-11-01T14:34:17.242Z,8.80
2017-11-01T14:36:46.995Z,8.80
2017-11-01T14:39:16.770Z,8.89
2017-11-01T14:41:46.502Z,8.90
2017-11-01T14:44:16.310Z,9.01
2017-11-01T14:46:46.050Z,9.00
2017-11-01T14:49:15.840Z,8.94
2017-11-01T14:51:45.607Z,8.86
2017-11-01T14:54:15.362Z,8.79
2017-11-01T14:56:45.270Z,8.78
2017-11-01T14:59:15.042Z,8.74
2017-11-01T15:01:44.831Z,8.75
2017-11-01T15:04:14.625Z,8.65
2017-11-01T15:06:44.376Z,8.67
2017-11-01T15:09:17.940Z,8.59
2017-11-01T15:11:47.734Z,8.48
2017-11-01T15:14:17.510Z,8.52
2017-11-01T15:16:47.274Z,8.43
2017-11-01T15:19:16.892Z,8.50
2017-11-01T15:21:46.946Z,8.42
2017-11-01T15:24:16.699Z,8.34
2017-11-01T15:26:46.519Z,8.29
2017-11-01T15:29:16.463Z,8.37
2017-11-01T15:31:46.344Z,8.39
2017-11-01T15:34:16.230Z,8.41
2017-11-01T15:36:45.840Z,8.34
2017-11-01T15:39:15.613Z,8.28
2017-11-01T15:41:51.933Z,8.30
2017-11-01T15:44:21.731Z,8.21
2017-11-01T15:46:51.464Z,8.27
2017-11-01T15:49:22.010Z,8.20
2017-11-01T15:51:51.813Z,8.19
2017-11-01T15:54:21.582Z,8.22
2017-11-01T15:56:51.389Z,8.22
2017-11-01T15:59:21.138Z,8.19
2017-11-01T16:01:50.904Z,8.19
2017-11-01T16:04:20.797Z,8.19
2017-11-01T16:06:50.939Z,8.15
2017-11-01T16:09:20.887Z,8.09
2017-11-01T16:11:51.383Z,8.08
2017-11-01T16:14:21.294Z,8.09
2017-11-01T16:16:50.886Z,8.07
2017-11-01T16:19:20.467Z,8.11
2017-11-01T16:21:50.240Z,8.11
2017-11-01T16:24:19.819Z,8.14
2017-11-01T16:26:49.579Z,8.15
2017-11-01T16:29:19.338Z,8.17
2017-11-01T16:31:49.141Z,8.20
2017-11-01T16:34:18.904Z,8.19
2017-11-01T16:36:48.660Z,8.17
2017-11-01T16:39:18.402Z,8.16
2017-11-01T16:41:48.172Z,8.10
2017-11-01T16:44:17.900Z,8.11
2017-11-01T16:46:47.464Z,8.07
2017-11-01T16:49:17.105Z,8.12
2017-11-01T16:51:46.891Z,8.08
2017-11-01T16:54:16.639Z,8.06
2017-11-01T16:56:46.391Z,8.01
2017-11-01T16:59:15.610Z,7.94
2017-11-01T17:01:45.423Z,7.91
2017-11-01T17:04:15.164Z,8.00
2017-11-01T17:06:44.947Z,7.99
2017-11-01T17:09:14.730Z,8.14
2017-11-01T17:11:44.188Z,8.17
2017-11-01T17:14:14.007Z,8.22
2017-11-01T17:16:43.737Z,8.20
2017-11-01T17:19:12.924Z,8.22
2017-11-01T17:21:42.673Z,8.19
2017-11-01T17:24:16.284Z,8.13
2017-11-01T17:26:46.053Z,8.09
2017-11-01T17:29:15.833Z,8.09
2017-11-01T17:31:45.445Z,8.18
2017-11-01T17:34:15.170Z,8.25
2017-11-01T17:36:44.930Z,8.28
2017-11-01T17:39:14.691Z,8.29
2017-11-01T17:41:44.462Z,8.26
2017-11-01T17:44:14.243Z,8.22
2017-11-01T17:46:44.015Z,8.20
2017-11-01T17:49:13.776Z,8.16
2017-11-01T17:51:43.554Z,8.14
2017-11-01T17:54:13.266Z,8.14
2017-11-01T17:56:43.054Z,8.17
2017-11-01T17:59:12.846Z,8.16
2017-11-01T18:01:42.732Z,8.12
2017-11-01T18:04:12.520Z,8.11
2017-11-01T18:06:42.301Z,8.10
2017-11-01T18:09:12.079Z,8.07
2017-11-01T18:11:42.489Z,8.06
2017-11-01T18:14:12.280Z,8.06
2017-11-01T18:16:42.044Z,8.06
2017-11-01T18:19:11.812Z,8.05
2017-11-01T18:21:41.586Z,8.09
2017-11-01T18:24:11.847Z,8.07
2017-11-01T18:26:41.701Z,8.06
2017-11-01T18:29:11.490Z,7.96
2017-11-01T18:31:41.302Z,7.90
2017-11-01T18:34:11.067Z,7.89
2017-11-01T18:36:40.850Z,8.01
2017-11-01T18:39:10.947Z,8.08
2017-11-01T18:41:40.855Z,8.04
2017-11-01T18:44:11.150Z,8.04
2017-11-01T18:46:41.933Z,8.06
2017-11-01T18:49:11.942Z,8.06
2017-11-01T18:51:41.746Z,8.04
2017-11-01T18:54:11.680Z,8.06
2017-11-01T18:56:41.798Z,8.04
2017-11-01T18:59:11.672Z,7.97
2017-11-01T19:01:41.381Z,7.91
2017-11-01T19:04:11.882Z,7.74
2017-11-01T19:06:41.493Z,7.72
2017-11-01T19:09:11.299Z,7.71
2017-11-01T19:11:41.170Z,7.70
2017-11-01T19:14:10.950Z,7.63
2017-11-01T19:16:40.838Z,7.63
2017-11-01T19:19:10.286Z,7.64
2017-11-01T19:21:40.048Z,7.68
2017-11-01T19:24:10.031Z,7.65
2017-11-01T19:26:39.915Z,7.67
2017-11-01T19:29:09.720Z,7.69
2017-11-01T19:31:39.439Z,7.67
2017-11-01T19:34:09.284Z,7.67
2017-11-01T19:36:39.132Z,7.65
2017-11-01T19:39:08.972Z,7.53
2017-11-01T19:41:39.174Z,7.26
2017-11-01T19:44:09.348Z,7.04
2017-11-01T19:46:39.245Z,6.78
2017-11-01T19:49:09.082Z,6.66
2017-11-01T19:51:39.092Z,6.53
2017-11-01T19:54:08.984Z,6.47
2017-11-01T19:56:38.834Z,6.43
2017-11-01T19:59:08.698Z,6.28
2017-11-01T20:01:38.598Z,6.00
2017-11-01T20:04:08.434Z,5.79
2017-11-01T20:06:38.166Z,5.60
2017-11-01T20:09:08.035Z,5.58
2017-11-01T20:11:37.875Z,5.46
2017-11-01T20:14:07.555Z,5.40
2017-11-01T20:16:37.425Z,5.36
2017-11-01T20:19:07.292Z,5.58
2017-11-01T20:21:37.337Z,5.58
2017-11-01T20:24:07.260Z,5.64
2017-11-01T20:26:37.170Z,5.71
2017-11-01T20:29:07.008Z,5.70
2017-11-01T20:31:36.948Z,5.72
2017-11-01T20:34:06.766Z,5.81
2017-11-01T20:36:36.651Z,5.88
2017-11-01T20:39:06.526Z,5.82
2017-11-01T20:41:36.408Z,5.77
2017-11-01T20:44:06.294Z,5.72
2017-11-01T20:46:36.117Z,5.66
2017-11-01T20:49:05.925Z,5.65
2017-11-01T20:51:35.759Z,5.63
2017-11-01T20:54:05.034Z,5.57
2017-11-01T20:56:34.996Z,5.43
2017-11-01T20:59:04.810Z,5.27
2017-11-01T21:01:34.410Z,5.17
2017-11-01T21:04:04.574Z,5.05
2017-11-01T21:06:34.233Z,4.87
2017-11-01T21:09:04.007Z,4.71
2017-11-01T21:11:34.531Z,4.58
2017-11-01T21:14:04.836Z,4.44
2017-11-01T21:16:35.078Z,4.37
2017-11-01T21:19:04.861Z,4.32
2017-11-01T21:21:34.647Z,4.22
2017-11-01T21:24:04.549Z,4.22
2017-11-01T21:26:34.718Z,4.27
2017-11-01T21:29:05.748Z,4.19
2017-11-01T21:31:35.393Z,4.10
2017-11-01T21:34:05.302Z,4.01
2017-11-01T21:36:35.996Z,3.98
2017-11-01T21:39:05.265Z,3.94
2017-11-01T21:41:35.137Z,3.85
2017-11-01T21:44:04.989Z,3.80
2017-11-01T21:46:34.857Z,3.75
2017-11-01T21:49:04.806Z,3.73
2017-11-01T21:51:35.454Z,3.75
2017-11-01T21:54:05.308Z,3.75
2017-11-01T21:56:34.897Z,3.67
2017-11-01T21:59:04.321Z,3.71
2017-11-01T22:01:33.929Z,3.84
2017-11-01T22:04:03.615Z,3.87
2017-11-01T22:06:33.435Z,3.80
2017-11-01T22:09:02.979Z,3.73
2017-11-01T22:11:32.781Z,3.63
2017-11-01T22:14:03.292Z,3.63
2017-11-01T22:16:33.032Z,3.59
2017-11-01T22:19:02.965Z,3.64
2017-11-01T22:21:32.910Z,3.70
2017-11-01T22:24:02.677Z,3.57
2017-11-01T22:26:34.036Z,3.51
2017-11-01T22:29:04.718Z,3.41
2017-11-01T22:31:34.537Z,3.47
2017-11-01T22:34:04.371Z,3.39
2017-11-01T22:36:34.012Z,3.30
2017-11-01T22:39:03.504Z,3.24
2017-11-01T22:41:33.280Z,3.21
2017-11-01T22:44:03.031Z,3.13
2017-11-01T22:46:34.828Z,3.20
2017-11-01T22:49:05.577Z,3.30
2017-11-01T22:51:36.867Z,3.25
2017-11-01T22:54:07.446Z,3.17
2017-11-01T22:56:38.009Z,3.08
2017-11-01T22:59:08.369Z,3.01
2017-11-01T23:01:38.751Z,3.01
2017-11-01T23:04:08.518Z,3.04
2017-11-01T23:06:39.041Z,3.00
2017-11-01T23:09:09.175Z,2.98
2017-11-01T23:11:39.629Z,2.98
2017-11-01T23:14:10.089Z,2.99
2017-11-01T23:16:40.294Z,2.94
2017-11-01T23:19:10.246Z,2.90
2017-11-01T23:21:40.291Z,2.93
2017-11-01T23:24:10.881Z,2.91
2017-11-01T23:26:40.761Z,2.89
2017-11-01T23:29:10.520Z,2.83
2017-11-01T23:31:40.310Z,2.80
2017-11-01T23:34:09.821Z,2.79
2017-11-01T23:36:39.605Z,2.78
2017-11-01T23:39:09.393Z,2.76
2017-11-01T23:41:39.214Z,2.79
2017-11-01T23:44:09.004Z,2.85
2017-11-01T23:46:38.788Z,2.81
2017-11-01T23:49:08.881Z,2.81
2017-11-01T23:51:38.695Z,2.82
2017-11-01T23:54:09.868Z,2.83
2017-11-01T23:56:40.151Z,2.72
2017-11-01T23:59:10.440Z,2.68
